DAUK

Touggourt Sidi Madhi Airport

Touggourt, Algeria
METAR DAUK 180200Z 02004KT 2000 HZ FEW040 27/16 Q1013
Observed Flight Rules
Aug-18 @ 02:00 UTC (29 minutes ago) Instrument Flight Rules
Wind Visibility Clouds Conditions
20° at 4 knots 1,996 meters
  • Few at 4,000' AGL
  • Haze
Temperatures Readings
Current 27°C / 81°F
Dewpoint 16°C / 61°F
Humidity 51%
Altimeter 29.91" Hg
Pressure 1013 hPa
Elevation 85
METAR DAUK 180200Z 02004KT 2000 HZ FEW040 27/16 Q1013
Observed Flight Rules
Aug-18 @ 02:00 UTC
(29 minutes ago)
IFR
Wind Visibility
20° at 4 knots 1,996 meters
Clouds
  • Few at 4,000' AGL
Conditions
  • Haze
Temperature Dewpoint
27°C / 81°F 16°C / 61°F
Humidity Altimeter Pressure
51% 29.91" Hg 1013 hPa